sensor_id;sensor_type;location;lat;lon;timestamp;pressure;altitude;pressure_sealevel;temperature;humidity
28428;BME280;15662;49.128;8.520;2023-04-05T00:01:08;101103.09;;;9.45;34.50
28428;BME280;15662;49.128;8.520;2023-04-05T00:03:39;101097.84;;;9.42;34.17
28428;BME280;15662;49.128;8.520;2023-04-05T00:06:07;101099.63;;;9.42;34.41
28428;BME280;15662;49.128;8.520;2023-04-05T00:08:35;101096.13;;;9.38;34.09
28428;BME280;15662;49.128;8.520;2023-04-05T00:11:03;101084.66;;;9.38;34.56
28428;BME280;15662;49.128;8.520;2023-04-05T00:13:31;101089.09;;;9.37;34.18
28428;BME280;15662;49.128;8.520;2023-04-05T00:15:59;101081.16;;;9.34;34.16
28428;BME280;15662;49.128;8.520;2023-04-05T00:18:28;101069.75;;;9.26;34.23
28428;BME280;15662;49.128;8.520;2023-04-05T00:21:00;101070.66;;;9.28;34.21
28428;BME280;15662;49.128;8.520;2023-04-05T00:23:28;101068.88;;;9.25;33.94
28428;BME280;15662;49.128;8.520;2023-04-05T00:25:56;101076.84;;;9.24;34.66
28428;BME280;15662;49.128;8.520;2023-04-05T00:28:23;101077.78;;;9.21;34.10
28428;BME280;15662;49.128;8.520;2023-04-05T00:30:52;101085.69;;;9.23;34.14
28428;BME280;15662;49.128;8.520;2023-04-05T00:33:19;101074.28;;;9.15;34.63
28428;BME280;15662;49.128;8.520;2023-04-05T00:35:47;101079.53;;;9.19;34.47
28428;BME280;15662;49.128;8.520;2023-04-05T00:38:15;101069.06;;;9.09;34.56
28428;BME280;15662;49.128;8.520;2023-04-05T00:40:43;101080.47;;;9.14;34.75
28428;BME280;15662;49.128;8.520;2023-04-05T00:43:12;101079.63;;;9.12;34.85
28428;BME280;15662;49.128;8.520;2023-04-05T00:45:41;101069.94;;;9.06;34.64
28428;BME280;15662;49.128;8.520;2023-04-05T00:48:09;101076.13;;;9.05;34.95
28428;BME280;15662;49.128;8.520;2023-04-05T00:50:38;101078.81;;;9.02;34.67
28428;BME280;15662;49.128;8.520;2023-04-05T00:53:08;101070.94;;;8.94;34.92
28428;BME280;15662;49.128;8.520;2023-04-05T00:55:36;101063.91;;;8.92;35.18
28428;BME280;15662;49.128;8.520;2023-04-05T00:58:04;101055.13;;;8.87;34.70
28428;BME280;15662;49.128;8.520;2023-04-05T01:00:32;101062.16;;;8.89;35.17
28428;BME280;15662;49.128;8.520;2023-04-05T01:03:02;101052.53;;;8.82;35.02
28428;BME280;15662;49.128;8.520;2023-04-05T01:05:48;101056.00;;;8.86;35.03
28428;BME280;15662;49.128;8.520;2023-04-05T01:08:36;101051.63;;;8.82;35.17
28428;BME280;15662;49.128;8.520;2023-04-05T01:11:08;101057.84;;;8.76;35.21
28428;BME280;15662;49.128;8.520;2023-04-05T01:13:36;101049.06;;;8.72;34.81
28428;BME280;15662;49.128;8.520;2023-04-05T01:16:04;101049.06;;;8.74;34.98
28428;BME280;15662;49.128;8.520;2023-04-05T01:18:32;101052.59;;;8.70;35.15
28428;BME280;15662;49.128;8.520;2023-04-05T01:27:50;101044.81;;;8.53;35.31
28428;BME280;15662;49.128;8.520;2023-04-05T01:30:29;101036.91;;;8.47;35.27
28428;BME280;15662;49.128;8.520;2023-04-05T01:33:13;101030.72;;;8.46;35.56
28428;BME280;15662;49.128;8.520;2023-04-05T01:36:11;101035.19;;;8.40;35.56
28428;BME280;15662;49.128;8.520;2023-04-05T01:38:46;101029.94;;;8.31;35.63
28428;BME280;15662;49.128;8.520;2023-04-05T01:41:16;101033.44;;;8.31;35.75
28428;BME280;15662;49.128;8.520;2023-04-05T01:43:46;101027.31;;;8.29;35.66
28428;BME280;15662;49.128;8.520;2023-04-05T01:46:14;101021.16;;;8.25;35.93
28428;BME280;15662;49.128;8.520;2023-04-05T01:48:43;101034.34;;;8.25;35.72
28428;BME280;15662;49.128;8.520;2023-04-05T01:51:11;101032.59;;;8.26;35.48
28428;BME280;15662;49.128;8.520;2023-04-05T01:53:39;101032.59;;;8.26;35.78
28428;BME280;15662;49.128;8.520;2023-04-05T01:56:07;101020.28;;;8.25;35.51
28428;BME280;15662;49.128;8.520;2023-04-05T01:58:36;101023.81;;;8.22;36.16
28428;BME280;15662;49.128;8.520;2023-04-05T02:01:05;101025.56;;;8.22;36.03
28428;BME280;15662;49.128;8.520;2023-04-05T02:03:34;101022.06;;;8.20;35.89
28428;BME280;15662;49.128;8.520;2023-04-05T02:06:04;101014.16;;;8.17;35.98
28428;BME280;15662;49.128;8.520;2023-04-05T02:08:32;101019.47;;;8.14;35.70
28428;BME280;15662;49.128;8.520;2023-04-05T02:11:00;101011.59;;;8.05;35.98
28428;BME280;15662;49.128;8.520;2023-04-05T02:13:29;101017.75;;;8.02;36.40
28428;BME280;15662;49.128;8.520;2023-04-05T02:15:57;101017.78;;;7.96;36.16
28428;BME280;15662;49.128;8.520;2023-04-05T02:18:25;101007.31;;;7.84;36.50
28428;BME280;15662;49.128;8.520;2023-04-05T02:21:04;101008.19;;;7.76;36.72
28428;BME280;15662;49.128;8.520;2023-04-05T02:23:33;101010.88;;;7.69;37.04
28428;BME280;15662;49.128;8.520;2023-04-05T02:26:01;101010.00;;;7.61;36.49
28428;BME280;15662;49.128;8.520;2023-04-05T02:28:30;101008.28;;;7.55;36.81
28428;BME280;15662;49.128;8.520;2023-04-05T02:30:57;101014.41;;;7.60;36.85
28428;BME280;15662;49.128;8.520;2023-04-05T02:33:25;101015.31;;;7.55;37.14
28428;BME280;15662;49.128;8.520;2023-04-05T02:35:54;101016.19;;;7.52;37.00
28428;BME280;15662;49.128;8.520;2023-04-05T02:38:22;101013.56;;;7.47;37.32
28428;BME280;15662;49.128;8.520;2023-04-05T02:40:50;101014.47;;;7.45;37.41
28428;BME280;15662;49.128;8.520;2023-04-05T02:43:18;101020.66;;;7.39;37.42
28428;BME280;15662;49.128;8.520;2023-04-05T02:45:46;101021.50;;;7.38;37.50
28428;BME280;15662;49.128;8.520;2023-04-05T02:48:17;101010.97;;;7.32;37.42
28428;BME280;15662;49.128;8.520;2023-04-05T02:50:49;101017.13;;;7.34;37.25
28428;BME280;15662;49.128;8.520;2023-04-05T02:53:18;101016.25;;;7.32;37.44
28428;BME280;15662;49.128;8.520;2023-04-05T02:55:55;101010.97;;;7.32;37.24
28428;BME280;15662;49.128;8.520;2023-04-05T02:58:24;101018.91;;;7.31;37.41
28428;BME280;15662;49.128;8.520;2023-04-05T03:00:52;101010.97;;;7.34;37.48
28428;BME280;15662;49.128;8.520;2023-04-05T03:03:27;101012.72;;;7.33;37.57
28428;BME280;15662;49.128;8.520;2023-04-05T03:05:58;101003.06;;;7.28;37.46
28428;BME280;15662;49.128;8.520;2023-04-05T03:08:33;101012.72;;;7.29;37.66
28428;BME280;15662;49.128;8.520;2023-04-05T03:11:05;101015.38;;;7.29;37.28
28428;BME280;15662;49.128;8.520;2023-04-05T03:13:34;101011.84;;;7.28;37.02
28428;BME280;15662;49.128;8.520;2023-04-05T03:16:06;101000.44;;;7.23;37.51
28428;BME280;15662;49.128;8.520;2023-04-05T03:18:35;101010.09;;;7.24;37.46
28428;BME280;15662;49.128;8.520;2023-04-05T03:21:07;101014.50;;;7.22;37.54
28428;BME280;15662;49.128;8.520;2023-04-05T03:23:49;101006.59;;;7.17;37.48
28428;BME280;15662;49.128;8.520;2023-04-05T03:26:22;100998.69;;;7.08;37.64
28428;BME280;15662;49.128;8.520;2023-04-05T03:28:53;100996.06;;;7.11;37.23
28428;BME280;15662;49.128;8.520;2023-04-05T03:31:27;101005.75;;;7.06;37.66
28428;BME280;15662;49.128;8.520;2023-04-05T03:34:00;100999.59;;;7.07;37.46
28428;BME280;15662;49.128;8.520;2023-04-05T03:36:33;100997.84;;;7.02;37.46
28428;BME280;15662;49.128;8.520;2023-04-05T03:39:14;100996.97;;;6.98;37.57
28428;BME280;15662;49.128;8.520;2023-04-05T03:41:43;100989.94;;;6.97;37.75
28428;BME280;15662;49.128;8.520;2023-04-05T03:44:11;101004.91;;;7.00;38.02
28428;BME280;15662;49.128;8.520;2023-04-05T03:46:39;101004.88;;;6.93;38.17
28428;BME280;15662;49.128;8.520;2023-04-05T03:49:09;101005.78;;;6.86;38.36
28428;BME280;15662;49.128;8.520;2023-04-05T03:51:36;101010.13;;;6.80;38.10
28428;BME280;15662;49.128;8.520;2023-04-05T03:54:04;101004.00;;;6.71;38.29
28428;BME280;15662;49.128;8.520;2023-04-05T03:56:34;101006.63;;;6.62;38.68
28428;BME280;15662;49.128;8.520;2023-04-05T03:59:10;101011.03;;;6.56;38.29
28428;BME280;15662;49.128;8.520;2023-04-05T04:01:39;101008.41;;;6.51;38.43
28428;BME280;15662;49.128;8.520;2023-04-05T04:04:07;101008.38;;;6.45;38.66
28428;BME280;15662;49.128;8.520;2023-04-05T04:06:35;100995.19;;;6.39;38.86
28428;BME280;15662;49.128;8.520;2023-04-05T04:09:06;101003.97;;;6.39;39.08
28428;BME280;15662;49.128;8.520;2023-04-05T04:11:34;101014.50;;;6.38;38.93
28428;BME280;15662;49.128;8.520;2023-04-05T04:14:04;101006.59;;;6.33;39.36
28428;BME280;15662;49.128;8.520;2023-04-05T04:16:51;101009.22;;;6.24;39.14
28428;BME280;15662;49.128;8.520;2023-04-05T04:19:48;101003.06;;;6.30;38.81
28428;BME280;15662;49.128;8.520;2023-04-05T04:22:38;101003.09;;;6.33;39.03
28428;BME280;15662;49.128;8.520;2023-04-05T04:25:30;101010.09;;;6.35;39.05
28428;BME280;15662;49.128;8.520;2023-04-05T04:28:24;101009.22;;;6.35;39.03
28428;BME280;15662;49.128;8.520;2023-04-05T04:31:13;101012.75;;;6.40;38.84
28428;BME280;15662;49.128;8.520;2023-04-05T04:34:18;101000.44;;;6.34;39.04
28428;BME280;15662;49.128;8.520;2023-04-05T04:37:25;101005.75;;;6.36;39.05
28428;BME280;15662;49.128;8.520;2023-04-05T04:40:20;101004.84;;;6.38;38.67
28428;BME280;15662;49.128;8.520;2023-04-05T04:43:13;101009.25;;;6.39;38.84
28428;BME280;15662;49.128;8.520;2023-04-05T04:46:02;100996.97;;;6.32;39.08
28428;BME280;15662;49.128;8.520;2023-04-05T04:48:57;101002.22;;;6.34;39.13
28428;BME280;15662;49.128;8.520;2023-04-05T04:51:36;101002.22;;;6.32;39.11
28428;BME280;15662;49.128;8.520;2023-04-05T04:54:07;101013.63;;;6.34;39.22
28428;BME280;15662;49.128;8.520;2023-04-05T04:56:35;101010.13;;;6.32;39.06
28428;BME280;15662;49.128;8.520;2023-04-05T04:59:03;101003.97;;;6.32;39.01
28428;BME280;15662;49.128;8.520;2023-04-05T05:01:31;101008.34;;;6.33;39.17
28428;BME280;15662;49.128;8.520;2023-04-05T05:04:03;100997.81;;;6.28;39.35
28428;BME280;15662;49.128;8.520;2023-04-05T05:06:34;101007.47;;;6.23;39.03
28428;BME280;15662;49.128;8.520;2023-04-05T05:09:03;101017.13;;;6.24;39.25
28428;BME280;15662;49.128;8.520;2023-04-05T05:11:35;101011.84;;;6.19;39.32
28428;BME280;15662;49.128;8.520;2023-04-05T05:14:06;101013.59;;;6.16;39.40
28428;BME280;15662;49.128;8.520;2023-04-05T05:16:37;101010.94;;;6.13;39.52
28428;BME280;15662;49.128;8.520;2023-04-05T05:19:05;101023.25;;;6.17;39.40
28428;BME280;15662;49.128;8.520;2023-04-05T05:21:53;101028.50;;;6.14;39.38
28428;BME280;15662;49.128;8.520;2023-04-05T05:24:21;101023.22;;;6.14;39.42
28428;BME280;15662;49.128;8.520;2023-04-05T05:26:49;101025.88;;;6.20;39.50
28428;BME280;15662;49.128;8.520;2023-04-05T05:29:18;101018.84;;;6.19;39.50
28428;BME280;15662;49.128;8.520;2023-04-05T05:31:48;101017.09;;;6.16;39.82
28428;BME280;15662;49.128;8.520;2023-04-05T05:34:16;101027.66;;;6.21;39.47
28428;BME280;15662;49.128;8.520;2023-04-05T05:36:54;101022.41;;;6.27;39.54
28428;BME280;15662;49.128;8.520;2023-04-05T05:39:22;101015.38;;;6.22;39.40
28428;BME280;15662;49.128;8.520;2023-04-05T05:41:50;101025.88;;;6.25;39.75
28428;BME280;15662;49.128;8.520;2023-04-05T05:44:18;101039.06;;;6.28;39.91
28428;BME280;15662;49.128;8.520;2023-04-05T05:46:46;101039.94;;;6.28;39.98
28428;BME280;15662;49.128;8.520;2023-04-05T05:49:14;101035.56;;;6.29;40.09
28428;BME280;15662;49.128;8.520;2023-04-05T05:51:42;101039.09;;;6.31;40.01
28428;BME280;15662;49.128;8.520;2023-04-05T05:54:10;101041.72;;;6.34;39.82
28428;BME280;15662;49.128;8.520;2023-04-05T05:56:38;101040.84;;;6.38;39.95
28428;BME280;15662;49.128;8.520;2023-04-05T05:59:06;101042.59;;;6.37;40.12
28428;BME280;15662;49.128;8.520;2023-04-05T06:01:34;101036.47;;;6.37;40.42
28428;BME280;15662;49.128;8.520;2023-04-05T06:04:10;101032.94;;;6.39;40.37
28428;BME280;15662;49.128;8.520;2023-04-05T06:06:39;101028.59;;;6.46;40.25
28428;BME280;15662;49.128;8.520;2023-04-05T06:09:09;101039.97;;;6.54;40.27
28428;BME280;15662;49.128;8.520;2023-04-05T06:11:38;101040.88;;;6.56;40.19
28428;BME280;15662;49.128;8.520;2023-04-05T06:14:23;101041.75;;;6.60;40.30
28428;BME280;15662;49.128;8.520;2023-04-05T06:16:51;101041.78;;;6.66;40.28
28428;BME280;15662;49.128;8.520;2023-04-05T06:19:21;101032.13;;;6.66;40.26
28428;BME280;15662;49.128;8.520;2023-04-05T06:21:49;101044.41;;;6.75;40.37
28428;BME280;15662;49.128;8.520;2023-04-05T06:24:17;101033.84;;;6.73;40.23
28428;BME280;15662;49.128;8.520;2023-04-05T06:26:44;101040.88;;;6.88;40.10
28428;BME280;15662;49.128;8.520;2023-04-05T06:29:12;101041.78;;;6.95;40.41
28428;BME280;15662;49.128;8.520;2023-04-05T06:31:40;101026.84;;;6.97;40.19
28428;BME280;15662;49.128;8.520;2023-04-05T06:34:09;101037.38;;;7.08;40.70
28428;BME280;15662;49.128;8.520;2023-04-05T06:36:37;101039.13;;;7.15;40.67
28428;BME280;15662;49.128;8.520;2023-04-05T06:39:06;101034.72;;;7.26;40.82
28428;BME280;15662;49.128;8.520;2023-04-05T06:41:36;101041.75;;;7.35;40.54
28428;BME280;15662;49.128;8.520;2023-04-05T06:44:07;101038.19;;;7.48;40.53
28428;BME280;15662;49.128;8.520;2023-04-05T06:46:38;101035.53;;;7.57;40.58
28428;BME280;15662;49.128;8.520;2023-04-05T06:49:06;101038.13;;;7.68;40.49
28428;BME280;15662;49.128;8.520;2023-04-05T06:51:35;101033.72;;;7.74;40.51
28428;BME280;15662;49.128;8.520;2023-04-05T06:54:03;101038.97;;;7.82;40.25
28428;BME280;15662;49.128;8.520;2023-04-05T06:56:31;101043.31;;;7.92;40.50
28428;BME280;15662;49.128;8.520;2023-04-05T06:59:00;101027.47;;;7.98;39.94
28428;BME280;15662;49.128;8.520;2023-04-05T07:01:28;101033.56;;;8.07;40.27
28428;BME280;15662;49.128;8.520;2023-04-05T07:04:00;101044.97;;;8.16;40.04
28428;BME280;15662;49.128;8.520;2023-04-05T07:06:28;101037.91;;;8.20;39.36
28428;BME280;15662;49.128;8.520;2023-04-05T07:08:56;101037.00;;;8.25;39.41
28428;BME280;15662;49.128;8.520;2023-04-05T07:11:24;101035.22;;;8.29;39.90
28428;BME280;15662;49.128;8.520;2023-04-05T07:13:52;101031.66;;;8.32;39.63
28428;BME280;15662;49.128;8.520;2023-04-05T07:16:21;101014.97;;;8.33;39.55
28428;BME280;15662;49.128;8.520;2023-04-05T07:18:50;101024.63;;;8.43;39.75
28428;BME280;15662;49.128;8.520;2023-04-05T07:21:18;101019.28;;;8.49;39.26
28428;BME280;15662;49.128;8.520;2023-04-05T07:23:46;101017.50;;;8.54;39.24
28428;BME280;15662;49.128;8.520;2023-04-05T07:26:14;101027.13;;;8.60;39.41
28428;BME280;15662;49.128;8.520;2023-04-05T07:28:44;101030.63;;;8.63;39.33
28428;BME280;15662;49.128;8.520;2023-04-05T07:31:14;101027.94;;;8.69;38.91
28428;BME280;15662;49.128;8.520;2023-04-05T07:33:42;101026.16;;;8.71;39.35
28428;BME280;15662;49.128;8.520;2023-04-05T07:36:10;101023.47;;;8.77;38.95
28428;BME280;15662;49.128;8.520;2023-04-05T07:38:40;101026.09;;;8.82;38.76
28428;BME280;15662;49.128;8.520;2023-04-05T07:41:08;101026.06;;;8.87;38.77
28428;BME280;15662;49.128;8.520;2023-04-05T07:43:37;101041.84;;;8.94;38.70
28428;BME280;15662;49.128;8.520;2023-04-05T07:46:05;101037.44;;;8.95;38.90
28428;BME280;15662;49.128;8.520;2023-04-05T07:48:34;101025.94;;;8.96;38.54
28428;BME280;15662;49.128;8.520;2023-04-05T07:51:04;101025.88;;;9.05;38.32
28428;BME280;15662;49.128;8.520;2023-04-05T07:53:35;101026.75;;;9.07;38.92
28428;BME280;15662;49.128;8.520;2023-04-05T07:56:09;101029.31;;;9.18;38.57
28428;BME280;15662;49.128;8.520;2023-04-05T07:58:37;101015.16;;;9.22;38.64
28428;BME280;15662;49.128;8.520;2023-04-05T08:01:09;101030.91;;;9.33;38.76
28428;BME280;15662;49.128;8.520;2023-04-05T08:03:38;101030.84;;;9.39;38.53
28428;BME280;15662;49.128;8.520;2023-04-05T08:06:13;101031.63;;;9.48;38.50
28428;BME280;15662;49.128;8.520;2023-04-05T08:08:42;101031.59;;;9.50;38.43
28428;BME280;15662;49.128;8.520;2023-04-05T08:11:10;101033.34;;;9.54;38.28
28428;BME280;15662;49.128;8.520;2023-04-05T08:13:40;101035.09;;;9.56;38.13
28428;BME280;15662;49.128;8.520;2023-04-05T08:16:09;101028.84;;;9.62;38.48
28428;BME280;15662;49.128;8.520;2023-04-05T08:18:39;101028.72;;;9.73;38.08
28428;BME280;15662;49.128;8.520;2023-04-05T08:21:07;101018.03;;;9.80;38.48
28428;BME280;15662;49.128;8.520;2023-04-05T08:23:36;101022.31;;;9.89;38.37
28428;BME280;15662;49.128;8.520;2023-04-05T08:26:04;101037.19;;;10.01;38.00
28428;BME280;15662;49.128;8.520;2023-04-05T08:28:34;101035.38;;;10.04;37.93
28428;BME280;15662;49.128;8.520;2023-04-05T08:31:02;101024.72;;;10.11;37.88
28428;BME280;15662;49.128;8.520;2023-04-05T08:33:35;101029.94;;;10.17;37.86
28428;BME280;15662;49.128;8.520;2023-04-05T08:36:07;101022.78;;;10.22;37.54
28428;BME280;15662;49.128;8.520;2023-04-05T08:38:36;101028.06;;;10.26;37.42
28428;BME280;15662;49.128;8.520;2023-04-05T08:41:18;101034.09;;;10.36;37.30
28428;BME280;15662;49.128;8.520;2023-04-05T08:43:59;101034.88;;;10.43;37.07
28428;BME280;15662;49.128;8.520;2023-04-05T08:46:31;101031.31;;;10.44;37.19
28428;BME280;15662;49.128;8.520;2023-04-05T08:49:07;101021.63;;;10.44;37.16
28428;BME280;15662;49.128;8.520;2023-04-05T08:51:36;101029.41;;;10.53;37.28
28428;BME280;15662;49.128;8.520;2023-04-05T08:54:08;101025.81;;;10.59;37.11
28428;BME280;15662;49.128;8.520;2023-04-05T08:56:38;101023.00;;;10.70;37.12
28428;BME280;15662;49.128;8.520;2023-04-05T08:59:12;101021.94;;;10.78;37.31
28428;BME280;15662;49.128;8.520;2023-04-05T09:01:43;101007.78;;;10.81;36.92
28428;BME280;15662;49.128;8.520;2023-04-05T09:04:20;101005.81;;;10.92;37.79
28428;BME280;15662;49.128;8.520;2023-04-05T09:06:51;101021.59;;;11.01;37.96
28428;BME280;15662;49.128;8.520;2023-04-05T09:09:24;101021.41;;;11.12;37.83
28428;BME280;15662;49.128;8.520;2023-04-05T09:11:52;101016.88;;;11.19;37.62
28428;BME280;15662;49.128;8.520;2023-04-05T09:14:21;101015.84;;;11.26;37.69
28428;BME280;15662;49.128;8.520;2023-04-05T09:16:55;101018.38;;;11.33;37.77
28428;BME280;15662;49.128;8.520;2023-04-05T09:19:25;101009.38;;;11.41;37.54
28428;BME280;15662;49.128;8.520;2023-04-05T09:22:05;101008.25;;;11.52;37.39
28428;BME280;15662;49.128;8.520;2023-04-05T09:24:43;101012.50;;;11.61;37.34
28428;BME280;15662;49.128;8.520;2023-04-05T09:27:18;101008.03;;;11.65;37.34
28428;BME280;15662;49.128;8.520;2023-04-05T09:29:54;101007.97;;;11.68;37.41
28428;BME280;15662;49.128;8.520;2023-04-05T09:32:25;101016.59;;;11.79;37.03
28428;BME280;15662;49.128;8.520;2023-04-05T09:34:58;101004.13;;;11.84;36.84
28428;BME280;15662;49.128;8.520;2023-04-05T09:37:30;100999.69;;;11.84;36.68
28428;BME280;15662;49.128;8.520;2023-04-05T09:40:04;101004.84;;;11.92;36.59
28428;BME280;15662;49.128;8.520;2023-04-05T09:42:43;101006.47;;;11.99;36.03
28428;BME280;15662;49.128;8.520;2023-04-05T09:45:15;100995.94;;;11.95;36.00
28428;BME280;15662;49.128;8.520;2023-04-05T09:47:57;100999.41;;;11.98;36.09
28428;BME280;15662;49.128;8.520;2023-04-05T09:50:25;101005.44;;;12.05;35.70
28428;BME280;15662;49.128;8.520;2023-04-05T09:53:11;100995.53;;;12.11;35.40
28428;BME280;15662;49.128;8.520;2023-04-05T09:55:43;100998.16;;;12.14;35.79
28428;BME280;15662;49.128;8.520;2023-04-05T09:58:20;100994.34;;;12.26;35.52
28428;BME280;15662;49.128;8.520;2023-04-05T10:00:50;100987.03;;;12.36;35.63
28428;BME280;15662;49.128;8.520;2023-04-05T10:03:48;100988.59;;;12.45;35.19
28428;BME280;15662;49.128;8.520;2023-04-05T10:06:17;100986.78;;;12.47;35.05
28428;BME280;15662;49.128;8.520;2023-04-05T10:08:46;100981.38;;;12.50;34.87
28428;BME280;15662;49.128;8.520;2023-04-05T10:11:17;100976.81;;;12.56;34.96
28428;BME280;15662;49.128;8.520;2023-04-05T10:13:48;100969.59;;;12.60;34.76
28428;BME280;15662;49.128;8.520;2023-04-05T10:16:20;100982.69;;;12.69;34.11
28428;BME280;15662;49.128;8.520;2023-04-05T10:18:52;100963.25;;;12.65;34.32
28428;BME280;15662;49.128;8.520;2023-04-05T10:21:24;100968.28;;;12.78;34.46
28428;BME280;15662;49.128;8.520;2023-04-05T10:24:33;100973.38;;;12.87;33.97
28428;BME280;15662;49.128;8.520;2023-04-05T10:27:29;100967.16;;;12.88;34.18
28428;BME280;15662;49.128;8.520;2023-04-05T10:30:03;100963.91;;;12.77;34.61
28428;BME280;15662;49.128;8.520;2023-04-05T10:33:23;100958.19;;;12.90;34.09
28428;BME280;15662;49.128;8.520;2023-04-05T10:36:49;100964.16;;;13.00;34.17
28428;BME280;15662;49.128;8.520;2023-04-05T10:42:26;100960.31;;;13.12;33.94
28428;BME280;15662;49.128;8.520;2023-04-05T10:45:17;100960.09;;;13.20;33.98
28428;BME280;15662;49.128;8.520;2023-04-05T10:47:56;100954.59;;;13.27;33.54
28428;BME280;15662;49.128;8.520;2023-04-05T10:50:26;100952.84;;;13.26;33.06
28428;BME280;15662;49.128;8.520;2023-04-05T10:52:55;100950.94;;;13.31;32.54
28428;BME280;15662;49.128;8.520;2023-04-05T10:55:24;100951.00;;;13.28;32.52
28428;BME280;15662;49.128;8.520;2023-04-05T10:57:53;100954.28;;;13.38;32.39
28428;BME280;15662;49.128;8.520;2023-04-05T11:00:22;100948.03;;;13.39;32.42
28428;BME280;15662;49.128;8.520;2023-04-05T11:02:54;100946.09;;;13.46;32.49
28428;BME280;15662;49.128;8.520;2023-04-05T11:05:43;100938.00;;;13.49;31.88
28428;BME280;15662;49.128;8.520;2023-04-05T11:08:11;100946.09;;;13.46;32.01
28428;BME280;15662;49.128;8.520;2023-04-05T11:10:40;100941.66;;;13.46;31.90
28428;BME280;15662;49.128;8.520;2023-04-05T11:13:09;100939.81;;;13.48;31.90
28428;BME280;15662;49.128;8.520;2023-04-05T11:15:39;100938.06;;;13.47;31.75
28428;BME280;15662;49.128;8.520;2023-04-05T11:20:53;100930.69;;;13.57;31.63
28428;BME280;15662;49.128;8.520;2023-04-05T11:23:26;100920.03;;;13.57;31.70
28428;BME280;15662;49.128;8.520;2023-04-05T11:26:05;100921.56;;;13.64;31.24
28428;BME280;15662;49.128;8.520;2023-04-05T11:28:35;100919.75;;;13.66;31.38
28428;BME280;15662;49.128;8.520;2023-04-05T11:31:17;100928.38;;;13.74;31.22
28428;BME280;15662;49.128;8.520;2023-04-05T11:36:41;100920.34;;;13.76;30.70
28428;BME280;15662;49.128;8.520;2023-04-05T11:42:04;100906.09;;;13.77;30.82
28428;BME280;15662;49.128;8.520;2023-04-05T11:47:11;100909.38;;;13.86;30.88
28428;BME280;15662;49.128;8.520;2023-04-05T11:49:40;100905.69;;;13.90;30.70
28428;BME280;15662;49.128;8.520;2023-04-05T11:52:15;100915.34;;;13.94;30.56
28428;BME280;15662;49.128;8.520;2023-04-05T11:54:44;100896.78;;;13.91;30.57
28428;BME280;15662;49.128;8.520;2023-04-05T11:57:23;100889.66;;;13.92;30.38
28428;BME280;15662;49.128;8.520;2023-04-05T11:59:52;100894.97;;;13.92;30.47
28428;BME280;15662;49.128;8.520;2023-04-05T12:02:20;100889.66;;;13.92;30.50
28428;BME280;15662;49.128;8.520;2023-04-05T12:04:54;100889.56;;;13.95;30.42
28428;BME280;15662;49.128;8.520;2023-04-05T12:07:28;100881.50;;;13.97;30.33
28428;BME280;15662;49.128;8.520;2023-04-05T12:10:07;100877.63;;;14.07;30.15
28428;BME280;15662;49.128;8.520;2023-04-05T12:12:41;100887.34;;;14.09;30.21
28428;BME280;15662;49.128;8.520;2023-04-05T12:15:11;100882.00;;;14.09;30.24
28428;BME280;15662;49.128;8.520;2023-04-05T12:17:48;100879.34;;;14.09;30.16
28428;BME280;15662;49.128;8.520;2023-04-05T12:20:22;100886.28;;;14.13;29.91
28428;BME280;15662;49.128;8.520;2023-04-05T12:22:56;100875.63;;;14.13;29.89
28428;BME280;15662;49.128;8.520;2023-04-05T12:25:24;100871.94;;;14.17;30.01
28428;BME280;15662;49.128;8.520;2023-04-05T12:27:52;100871.91;;;14.19;29.57
28428;BME280;15662;49.128;8.520;2023-04-05T12:30:22;100863.88;;;14.20;29.67
28428;BME280;15662;49.128;8.520;2023-04-05T12:32:52;100852.13;;;14.26;29.57
28428;BME280;15662;49.128;8.520;2023-04-05T12:35:29;100861.69;;;14.32;29.47
28428;BME280;15662;49.128;8.520;2023-04-05T12:38:03;100858.06;;;14.34;29.60
28428;BME280;15662;49.128;8.520;2023-04-05T12:40:35;100858.94;;;14.35;29.58
28428;BME280;15662;49.128;8.520;2023-04-05T12:43:06;100857.94;;;14.39;29.28
28428;BME280;15662;49.128;8.520;2023-04-05T12:45:36;100854.19;;;14.43;29.32
28428;BME280;15662;49.128;8.520;2023-04-05T12:48:14;100851.41;;;14.48;29.18
28428;BME280;15662;49.128;8.520;2023-04-05T12:50:45;100843.31;;;14.51;29.14
28428;BME280;15662;49.128;8.520;2023-04-05T12:53:18;100843.31;;;14.51;29.18
28428;BME280;15662;49.128;8.520;2023-04-05T12:55:55;100834.28;;;14.55;29.21
28428;BME280;15662;49.128;8.520;2023-04-05T12:58:35;100843.16;;;14.55;29.08
28428;BME280;15662;49.128;8.520;2023-04-05T13:01:05;100835.09;;;14.57;29.34
28428;BME280;15662;49.128;8.520;2023-04-05T13:03:33;100849.97;;;14.64;29.11
28428;BME280;15662;49.128;8.520;2023-04-05T13:06:01;100836.50;;;14.67;29.01
28428;BME280;15662;49.128;8.520;2023-04-05T13:08:29;100831.16;;;14.68;29.02
28428;BME280;15662;49.128;8.520;2023-04-05T13:10:58;100820.56;;;14.65;28.80
28428;BME280;15662;49.128;8.520;2023-04-05T13:13:29;100817.97;;;14.64;28.77
28428;BME280;15662;49.128;8.520;2023-04-05T13:15:57;100818.53;;;14.72;28.67
28428;BME280;15662;49.128;8.520;2023-04-05T13:18:25;100819.31;;;14.76;28.56
28428;BME280;15662;49.128;8.520;2023-04-05T13:20:53;100819.09;;;14.82;28.56
28428;BME280;15662;49.128;8.520;2023-04-05T13:23:21;100805.72;;;14.83;28.50
28428;BME280;15662;49.128;8.520;2023-04-05T13:25:50;100815.13;;;14.93;28.27
28428;BME280;15662;49.128;8.520;2023-04-05T13:28:18;100814.88;;;15.00;28.23
28428;BME280;15662;49.128;8.520;2023-04-05T13:30:46;100810.31;;;15.03;28.15
28428;BME280;15662;49.128;8.520;2023-04-05T13:33:19;100803.00;;;15.08;27.95
28428;BME280;15662;49.128;8.520;2023-04-05T13:35:48;100801.13;;;15.10;27.94
28428;BME280;15662;49.128;8.520;2023-04-05T13:38:16;100807.19;;;15.15;27.67
28428;BME280;15662;49.128;8.520;2023-04-05T13:40:44;100794.69;;;15.16;27.48
28428;BME280;15662;49.128;8.520;2023-04-05T13:43:12;100791.16;;;15.15;27.38